sensor_id;sensor_type;location;lat;lon;timestamp;pressure;altitude;pressure_sealevel;temperature;humidity
46690;BME280;32423;45.398;10.874;2023-08-20T00:01:52;101039.03;;;27.03;61.92
46690;BME280;32423;45.398;10.874;2023-08-20T00:04:40;101033.50;;;27.00;61.92
46690;BME280;32423;45.398;10.874;2023-08-20T00:07:26;101027.97;;;26.96;61.85
46690;BME280;32423;45.398;10.874;2023-08-20T00:10:11;101019.22;;;26.94;62.06
46690;BME280;32423;45.398;10.874;2023-08-20T00:12:55;101020.06;;;26.91;62.00
46690;BME280;32423;45.398;10.874;2023-08-20T00:15:40;101025.78;;;26.77;62.89
46690;BME280;32423;45.398;10.874;2023-08-20T00:18:24;101025.28;;;26.86;62.34
46690;BME280;32423;45.398;10.874;2023-08-20T00:21:09;101026.91;;;26.83;62.69
46690;BME280;32423;45.398;10.874;2023-08-20T00:23:54;101019.25;;;26.91;62.33
46690;BME280;32423;45.398;10.874;2023-08-20T00:26:39;101026.00;;;26.93;62.25
46690;BME280;32423;45.398;10.874;2023-08-20T00:29:24;101026.47;;;26.88;62.12
46690;BME280;32423;45.398;10.874;2023-08-20T00:32:09;101022.50;;;26.86;62.55
46690;BME280;32423;45.398;10.874;2023-08-20T00:34:54;101026.53;;;26.81;62.33
46690;BME280;32423;45.398;10.874;2023-08-20T00:37:38;101027.47;;;26.71;63.02
46690;BME280;32423;45.398;10.874;2023-08-20T00:40:22;101020.19;;;26.77;62.57
46690;BME280;32423;45.398;10.874;2023-08-20T00:43:07;101021.88;;;26.71;62.58
46690;BME280;32423;45.398;10.874;2023-08-20T00:45:52;101024.22;;;26.76;62.62
46690;BME280;32423;45.398;10.874;2023-08-20T00:48:37;101020.19;;;26.77;62.73
46690;BME280;32423;45.398;10.874;2023-08-20T00:51:21;101019.31;;;26.83;62.30
46690;BME280;32423;45.398;10.874;2023-08-20T00:54:06;101014.94;;;26.82;62.24
46690;BME280;32423;45.398;10.874;2023-08-20T00:56:51;101020.97;;;26.81;62.37
46690;BME280;32423;45.398;10.874;2023-08-20T00:59:36;101019.72;;;26.82;62.16
46690;BME280;32423;45.398;10.874;2023-08-20T01:02:21;101032.13;;;26.81;62.32
46690;BME280;32423;45.398;10.874;2023-08-20T01:05:06;101029.75;;;26.79;62.14
46690;BME280;32423;45.398;10.874;2023-08-20T01:10:42;101031.75;;;26.79;62.15
46690;BME280;32423;45.398;10.874;2023-08-20T01:13:33;101028.56;;;26.77;62.24
46690;BME280;32423;45.398;10.874;2023-08-20T01:16:17;101029.75;;;26.79;61.74
46690;BME280;32423;45.398;10.874;2023-08-20T01:19:02;101025.38;;;26.78;61.84
46690;BME280;32423;45.398;10.874;2023-08-20T01:27:50;101039.44;;;26.71;62.00
46690;BME280;32423;45.398;10.874;2023-08-20T01:30:36;101036.19;;;26.73;61.91
46690;BME280;32423;45.398;10.874;2023-08-20T01:33:21;101032.22;;;26.74;61.79
46690;BME280;32423;45.398;10.874;2023-08-20T01:36:06;101035.03;;;26.70;61.80
46690;BME280;32423;45.398;10.874;2023-08-20T01:38:53;101037.84;;;26.70;61.84
46690;BME280;32423;45.398;10.874;2023-08-20T01:41:38;101031.94;;;26.65;62.02
46690;BME280;32423;45.398;10.874;2023-08-20T01:44:22;101033.59;;;26.59;62.07
46690;BME280;32423;45.398;10.874;2023-08-20T01:47:07;101037.97;;;26.60;62.09
46690;BME280;32423;45.398;10.874;2023-08-20T01:49:51;101037.56;;;26.61;62.14
46690;BME280;32423;45.398;10.874;2023-08-20T01:52:36;101037.22;;;26.56;62.40
46690;BME280;32423;45.398;10.874;2023-08-20T01:55:20;101042.44;;;26.13;63.83
46690;BME280;32423;45.398;10.874;2023-08-20T01:58:04;101041.38;;;25.96;64.76
46690;BME280;32423;45.398;10.874;2023-08-20T02:00:49;101048.94;;;25.99;64.76
46690;BME280;32423;45.398;10.874;2023-08-20T02:03:35;101052.53;;;25.96;64.56
46690;BME280;32423;45.398;10.874;2023-08-20T02:06:19;101036.94;;;26.02;64.63
46690;BME280;32423;45.398;10.874;2023-08-20T02:09:03;101036.94;;;26.02;64.69
46690;BME280;32423;45.398;10.874;2023-08-20T02:11:48;101039.75;;;26.02;64.05
46690;BME280;32423;45.398;10.874;2023-08-20T02:14:32;101044.81;;;26.14;64.01
46690;BME280;32423;45.398;10.874;2023-08-20T02:17:19;101041.50;;;26.26;63.68
46690;BME280;32423;45.398;10.874;2023-08-20T02:20:03;101043.50;;;26.29;62.91
46690;BME280;32423;45.398;10.874;2023-08-20T02:22:49;101040.38;;;26.17;63.90
46690;BME280;32423;45.398;10.874;2023-08-20T02:25:34;101037.78;;;25.99;64.20
46690;BME280;32423;45.398;10.874;2023-08-20T02:28:18;101037.03;;;25.95;63.76
46690;BME280;32423;45.398;10.874;2023-08-20T02:31:06;101042.97;;;25.97;64.33
46690;BME280;32423;45.398;10.874;2023-08-20T02:33:50;101033.84;;;25.93;64.49
46690;BME280;32423;45.398;10.874;2023-08-20T02:36:34;101044.81;;;25.70;64.95
46690;BME280;32423;45.398;10.874;2023-08-20T02:39:20;101042.88;;;25.63;65.35
46690;BME280;32423;45.398;10.874;2023-08-20T02:42:04;101046.84;;;25.62;65.56
46690;BME280;32423;45.398;10.874;2023-08-20T02:44:49;101041.00;;;25.42;65.94
46690;BME280;32423;45.398;10.874;2023-08-20T02:47:33;101044.25;;;25.34;66.54
46690;BME280;32423;45.398;10.874;2023-08-20T02:50:18;101047.72;;;25.48;66.21
46690;BME280;32423;45.398;10.874;2023-08-20T02:53:02;101051.28;;;25.56;65.44
46690;BME280;32423;45.398;10.874;2023-08-20T02:55:47;101049.25;;;25.64;65.26
46690;BME280;32423;45.398;10.874;2023-08-20T02:58:32;101048.53;;;25.45;65.63
46690;BME280;32423;45.398;10.874;2023-08-20T03:01:26;101053.25;;;25.55;65.14
46690;BME280;32423;45.398;10.874;2023-08-20T03:04:12;101053.25;;;25.55;65.34
46690;BME280;32423;45.398;10.874;2023-08-20T03:06:57;101052.19;;;25.39;65.83
46690;BME280;32423;45.398;10.874;2023-08-20T03:09:41;101055.03;;;25.28;66.05
46690;BME280;32423;45.398;10.874;2023-08-20T03:12:25;101055.06;;;25.21;66.28
46690;BME280;32423;45.398;10.874;2023-08-20T03:15:09;101051.19;;;25.01;67.22
46690;BME280;32423;45.398;10.874;2023-08-20T03:17:54;101046.38;;;25.12;67.54
46690;BME280;32423;45.398;10.874;2023-08-20T03:20:38;101048.84;;;24.96;68.14
46690;BME280;32423;45.398;10.874;2023-08-20T03:23:23;101052.41;;;24.96;67.63
46690;BME280;32423;45.398;10.874;2023-08-20T03:26:08;101049.66;;;24.89;68.17
46690;BME280;32423;45.398;10.874;2023-08-20T03:28:53;101052.38;;;25.00;67.55
46690;BME280;32423;45.398;10.874;2023-08-20T03:31:38;101046.44;;;24.98;68.00
46690;BME280;32423;45.398;10.874;2023-08-20T03:34:23;101052.69;;;25.16;67.45
46690;BME280;32423;45.398;10.874;2023-08-20T03:37:07;101052.09;;;25.49;66.24
46690;BME280;32423;45.398;10.874;2023-08-20T03:39:53;101051.69;;;25.51;65.79
46690;BME280;32423;45.398;10.874;2023-08-20T03:42:38;101053.41;;;25.34;66.42
46690;BME280;32423;45.398;10.874;2023-08-20T03:45:22;101055.69;;;25.46;66.23
46690;BME280;32423;45.398;10.874;2023-08-20T03:48:07;101048.69;;;25.24;66.03
46690;BME280;32423;45.398;10.874;2023-08-20T03:50:52;101044.09;;;24.89;67.83
46690;BME280;32423;45.398;10.874;2023-08-20T03:53:36;101044.88;;;24.90;67.37
46690;BME280;32423;45.398;10.874;2023-08-20T03:56:20;101049.72;;;24.64;68.91
46690;BME280;32423;45.398;10.874;2023-08-20T03:59:05;101048.97;;;24.57;69.29
46690;BME280;32423;45.398;10.874;2023-08-20T04:01:49;101048.47;;;24.94;68.23
46690;BME280;32423;45.398;10.874;2023-08-20T04:04:33;101047.47;;;25.25;67.11
46690;BME280;32423;45.398;10.874;2023-08-20T04:07:18;101053.41;;;25.31;66.32
46690;BME280;32423;45.398;10.874;2023-08-20T04:10:02;101051.53;;;25.10;66.85
46690;BME280;32423;45.398;10.874;2023-08-20T04:12:47;101048.75;;;25.10;66.81
46690;BME280;32423;45.398;10.874;2023-08-20T04:15:32;101054.34;;;25.06;66.93
46690;BME280;32423;45.398;10.874;2023-08-20T04:18:17;101059.97;;;24.96;67.67
46690;BME280;32423;45.398;10.874;2023-08-20T04:21:01;101058.09;;;24.68;68.84
46690;BME280;32423;45.398;10.874;2023-08-20T04:23:47;101058.88;;;24.68;69.69
46690;BME280;32423;45.398;10.874;2023-08-20T04:26:32;101057.22;;;24.82;68.97
46690;BME280;32423;45.398;10.874;2023-08-20T04:29:16;101065.19;;;24.76;68.71
46690;BME280;32423;45.398;10.874;2023-08-20T04:32:00;101061.69;;;24.58;69.31
46690;BME280;32423;45.398;10.874;2023-08-20T04:34:45;101068.81;;;24.59;69.36
46690;BME280;32423;45.398;10.874;2023-08-20T04:37:32;101063.31;;;24.34;69.89
46690;BME280;32423;45.398;10.874;2023-08-20T04:40:16;101075.63;;;24.47;69.40
46690;BME280;32423;45.398;10.874;2023-08-20T04:43:01;101070.47;;;24.39;69.75
46690;BME280;32423;45.398;10.874;2023-08-20T04:45:46;101067.63;;;24.63;68.98
46690;BME280;32423;45.398;10.874;2023-08-20T04:48:30;101075.94;;;24.70;68.69
46690;BME280;32423;45.398;10.874;2023-08-20T04:51:15;101076.75;;;24.67;69.18
46690;BME280;32423;45.398;10.874;2023-08-20T04:54:00;101078.69;;;24.81;68.38
46690;BME280;32423;45.398;10.874;2023-08-20T04:56:44;101088.66;;;24.71;68.95
46690;BME280;32423;45.398;10.874;2023-08-20T04:59:28;101096.25;;;24.50;69.51
46690;BME280;32423;45.398;10.874;2023-08-20T05:02:32;101094.22;;;24.71;69.15
46690;BME280;32423;45.398;10.874;2023-08-20T05:05:19;101096.63;;;24.62;69.83
46690;BME280;32423;45.398;10.874;2023-08-20T05:08:04;101090.97;;;24.98;68.03
46690;BME280;32423;45.398;10.874;2023-08-20T05:10:49;101096.06;;;25.13;67.39
46690;BME280;32423;45.398;10.874;2023-08-20T05:13:35;101099.47;;;25.49;66.15
46690;BME280;32423;45.398;10.874;2023-08-20T05:16:19;101105.78;;;25.57;66.30
46690;BME280;32423;45.398;10.874;2023-08-20T05:19:04;101109.63;;;25.77;65.15
46690;BME280;32423;45.398;10.874;2023-08-20T05:21:48;101099.28;;;25.78;65.10
46690;BME280;32423;45.398;10.874;2023-08-20T05:24:33;101100.28;;;26.02;64.59
46690;BME280;32423;45.398;10.874;2023-08-20T05:27:18;101107.03;;;26.04;64.41
46690;BME280;32423;45.398;10.874;2023-08-20T05:30:05;101102.56;;;26.14;64.04
46690;BME280;32423;45.398;10.874;2023-08-20T05:32:50;101108.47;;;26.23;63.98
46690;BME280;32423;45.398;10.874;2023-08-20T05:35:35;101109.22;;;26.30;63.54
46690;BME280;32423;45.398;10.874;2023-08-20T05:38:21;101102.06;;;26.29;63.93
46690;BME280;32423;45.398;10.874;2023-08-20T05:41:06;101102.28;;;26.46;63.49
46690;BME280;32423;45.398;10.874;2023-08-20T05:43:51;101114.56;;;26.52;63.64
46690;BME280;32423;45.398;10.874;2023-08-20T05:46:36;101114.44;;;26.66;62.94
46690;BME280;32423;45.398;10.874;2023-08-20T05:49:20;101116.88;;;26.60;63.65
46690;BME280;32423;45.398;10.874;2023-08-20T05:52:05;101116.03;;;26.63;63.20
46690;BME280;32423;45.398;10.874;2023-08-20T05:54:50;101118.44;;;26.65;62.88
46690;BME280;32423;45.398;10.874;2023-08-20T05:57:35;101118.31;;;26.72;63.06
46690;BME280;32423;45.398;10.874;2023-08-20T06:00:21;101120.16;;;26.89;62.39
46690;BME280;32423;45.398;10.874;2023-08-20T06:03:07;101119.69;;;26.94;61.58
46690;BME280;32423;45.398;10.874;2023-08-20T06:05:53;101121.97;;;27.06;61.25
46690;BME280;32423;45.398;10.874;2023-08-20T06:08:37;101123.50;;;27.07;61.53
46690;BME280;32423;45.398;10.874;2023-08-20T06:11:22;101126.16;;;27.18;61.29
46690;BME280;32423;45.398;10.874;2023-08-20T06:14:07;101125.69;;;27.27;60.60
46690;BME280;32423;45.398;10.874;2023-08-20T06:16:51;101117.50;;;27.39;60.09
46690;BME280;32423;45.398;10.874;2023-08-20T06:19:36;101126.94;;;27.52;59.85
46690;BME280;32423;45.398;10.874;2023-08-20T06:22:20;101130.06;;;27.58;59.75
46690;BME280;32423;45.398;10.874;2023-08-20T06:25:05;101134.06;;;27.57;59.55
46690;BME280;32423;45.398;10.874;2023-08-20T06:27:50;101134.81;;;27.61;59.57
46690;BME280;32423;45.398;10.874;2023-08-20T06:30:34;101131.13;;;27.68;59.48
46690;BME280;32423;45.398;10.874;2023-08-20T06:33:18;101135.00;;;27.74;59.48
46690;BME280;32423;45.398;10.874;2023-08-20T06:36:03;101129.72;;;27.79;59.30
46690;BME280;32423;45.398;10.874;2023-08-20T06:38:48;101132.03;;;27.84;58.60
46690;BME280;32423;45.398;10.874;2023-08-20T06:41:32;101134.41;;;27.86;58.98
46690;BME280;32423;45.398;10.874;2023-08-20T06:44:16;101130.66;;;27.96;58.65
46690;BME280;32423;45.398;10.874;2023-08-20T06:47:01;101138.19;;;27.99;58.63
46690;BME280;32423;45.398;10.874;2023-08-20T06:49:46;101143.44;;;27.97;58.59
46690;BME280;32423;45.398;10.874;2023-08-20T06:52:30;101139.84;;;27.96;59.01
46690;BME280;32423;45.398;10.874;2023-08-20T06:55:14;101142.47;;;28.07;58.51
46690;BME280;32423;45.398;10.874;2023-08-20T06:57:59;101137.94;;;28.17;58.39
46690;BME280;32423;45.398;10.874;2023-08-20T07:00:43;101130.91;;;28.05;58.75
46690;BME280;32423;45.398;10.874;2023-08-20T07:03:28;101140.31;;;28.18;58.35
46690;BME280;32423;45.398;10.874;2023-08-20T07:06:12;101136.00;;;28.14;58.78
46690;BME280;32423;45.398;10.874;2023-08-20T07:08:59;101146.50;;;28.29;58.04
46690;BME280;32423;45.398;10.874;2023-08-20T07:11:43;101137.69;;;28.31;57.89
46690;BME280;32423;45.398;10.874;2023-08-20T07:14:28;101143.03;;;28.45;56.92
46690;BME280;32423;45.398;10.874;2023-08-20T07:17:13;101146.09;;;28.54;56.63
46690;BME280;32423;45.398;10.874;2023-08-20T07:19:57;101140.22;;;28.45;57.07
46690;BME280;32423;45.398;10.874;2023-08-20T07:22:41;101153.97;;;28.59;56.71
46690;BME280;32423;45.398;10.874;2023-08-20T07:25:26;101140.69;;;28.43;56.81
46690;BME280;32423;45.398;10.874;2023-08-20T07:28:11;101143.22;;;28.58;56.20
46690;BME280;32423;45.398;10.874;2023-08-20T07:30:56;101147.19;;;28.37;57.11
46690;BME280;32423;45.398;10.874;2023-08-20T07:33:41;101146.75;;;28.38;56.42
46690;BME280;32423;45.398;10.874;2023-08-20T07:36:25;101144.34;;;28.60;55.97
46690;BME280;32423;45.398;10.874;2023-08-20T07:39:10;101154.03;;;28.79;55.23
46690;BME280;32423;45.398;10.874;2023-08-20T07:41:55;101150.16;;;28.73;55.29
46690;BME280;32423;45.398;10.874;2023-08-20T07:44:40;101154.09;;;28.75;55.31
46690;BME280;32423;45.398;10.874;2023-08-20T07:47:24;101148.56;;;28.91;54.54
46690;BME280;32423;45.398;10.874;2023-08-20T07:50:09;101155.25;;;28.78;54.85
46690;BME280;32423;45.398;10.874;2023-08-20T07:52:53;101156.63;;;28.66;55.54
46690;BME280;32423;45.398;10.874;2023-08-20T07:55:37;101149.22;;;29.19;53.31
46690;BME280;32423;45.398;10.874;2023-08-20T07:58:22;101151.78;;;29.29;53.05
46690;BME280;32423;45.398;10.874;2023-08-20T08:01:07;101155.03;;;29.48;52.47
46690;BME280;32423;45.398;10.874;2023-08-20T08:03:52;101150.47;;;29.54;51.05
46690;BME280;32423;45.398;10.874;2023-08-20T08:06:37;101159.09;;;29.63;50.15
46690;BME280;32423;45.398;10.874;2023-08-20T08:09:26;101151.78;;;29.29;52.50
46690;BME280;32423;45.398;10.874;2023-08-20T08:12:11;101153.47;;;29.07;53.21
46690;BME280;32423;45.398;10.874;2023-08-20T08:14:55;101152.16;;;29.12;52.39
46690;BME280;32423;45.398;10.874;2023-08-20T08:17:40;101149.66;;;28.98;52.69
46690;BME280;32423;45.398;10.874;2023-08-20T08:20:24;101148.00;;;29.20;52.26
46690;BME280;32423;45.398;10.874;2023-08-20T08:23:09;101145.66;;;29.54;51.17
46690;BME280;32423;45.398;10.874;2023-08-20T08:25:53;101143.94;;;29.60;51.79
46690;BME280;32423;45.398;10.874;2023-08-20T08:28:38;101148.97;;;29.85;50.95
46690;BME280;32423;45.398;10.874;2023-08-20T08:31:23;101155.34;;;29.86;52.55
46690;BME280;32423;45.398;10.874;2023-08-20T08:34:08;101150.31;;;29.97;50.83
46690;BME280;32423;45.398;10.874;2023-08-20T08:36:52;101151.59;;;29.76;56.35
46690;BME280;32423;45.398;10.874;2023-08-20T08:39:37;101144.44;;;29.91;54.18
46690;BME280;32423;45.398;10.874;2023-08-20T08:42:22;101143.47;;;29.98;53.42
46690;BME280;32423;45.398;10.874;2023-08-20T08:45:09;101148.13;;;30.04;52.10
46690;BME280;32423;45.398;10.874;2023-08-20T08:47:55;101145.22;;;30.08;52.07
46690;BME280;32423;45.398;10.874;2023-08-20T08:50:39;101150.28;;;30.13;50.96
46690;BME280;32423;45.398;10.874;2023-08-20T08:53:24;101151.44;;;30.15;50.85
46690;BME280;32423;45.398;10.874;2023-08-20T08:56:08;101144.09;;;30.22;50.14
46690;BME280;32423;45.398;10.874;2023-08-20T08:58:53;101146.16;;;30.34;50.20
46690;BME280;32423;45.398;10.874;2023-08-20T09:01:38;101146.16;;;30.34;51.09
46690;BME280;32423;45.398;10.874;2023-08-20T09:04:24;101145.72;;;30.35;51.51
46690;BME280;32423;45.398;10.874;2023-08-20T09:07:12;101140.47;;;30.37;51.60
46690;BME280;32423;45.398;10.874;2023-08-20T09:09:58;101136.66;;;30.44;50.94
46690;BME280;32423;45.398;10.874;2023-08-20T09:12:43;101139.44;;;30.47;50.47
46690;BME280;32423;45.398;10.874;2023-08-20T09:15:32;101136.41;;;30.54;49.59
46690;BME280;32423;45.398;10.874;2023-08-20T09:18:17;101136.66;;;30.60;49.96
46690;BME280;32423;45.398;10.874;2023-08-20T09:21:01;101134.22;;;30.62;50.14
46690;BME280;32423;45.398;10.874;2023-08-20T09:23:46;101135.34;;;30.65;50.10
46690;BME280;32423;45.398;10.874;2023-08-20T09:26:31;101147.59;;;30.71;50.06
46690;BME280;32423;45.398;10.874;2023-08-20T09:29:16;101141.88;;;30.74;50.07
46690;BME280;32423;45.398;10.874;2023-08-20T09:32:01;101141.44;;;30.76;49.85
46690;BME280;32423;45.398;10.874;2023-08-20T09:34:50;101139.00;;;30.78;50.02
46690;BME280;32423;45.398;10.874;2023-08-20T09:37:35;101148.44;;;30.84;49.77
46690;BME280;32423;45.398;10.874;2023-08-20T09:40:20;101145.88;;;30.89;47.96
46690;BME280;32423;45.398;10.874;2023-08-20T09:43:05;101145.25;;;30.98;47.87
46690;BME280;32423;45.398;10.874;2023-08-20T09:45:52;101146.63;;;31.06;47.74
46690;BME280;32423;45.398;10.874;2023-08-20T09:48:38;101149.56;;;31.15;46.17
46690;BME280;32423;45.398;10.874;2023-08-20T09:51:26;101151.63;;;31.27;46.08
46690;BME280;32423;45.398;10.874;2023-08-20T09:54:19;101151.75;;;31.36;45.20
46690;BME280;32423;45.398;10.874;2023-08-20T09:57:06;101150.97;;;31.36;47.35
46690;BME280;32423;45.398;10.874;2023-08-20T09:59:51;101148.94;;;31.36;47.77
46690;BME280;32423;45.398;10.874;2023-08-20T10:02:40;101151.41;;;31.34;47.67
46690;BME280;32423;45.398;10.874;2023-08-20T10:05:25;101152.53;;;31.37;47.56
46690;BME280;32423;45.398;10.874;2023-08-20T10:08:10;101146.25;;;31.46;46.73
46690;BME280;32423;45.398;10.874;2023-08-20T10:10:54;101144.44;;;31.52;46.37
46690;BME280;32423;45.398;10.874;2023-08-20T10:13:39;101138.31;;;31.57;45.94
46690;BME280;32423;45.398;10.874;2023-08-20T10:16:23;101143.47;;;31.71;45.19
46690;BME280;32423;45.398;10.874;2023-08-20T10:19:08;101147.66;;;31.79;45.38
46690;BME280;32423;45.398;10.874;2023-08-20T10:21:53;101133.00;;;31.84;45.32
46690;BME280;32423;45.398;10.874;2023-08-20T10:24:45;101146.81;;;31.91;45.23
46690;BME280;32423;45.398;10.874;2023-08-20T10:27:31;101143.66;;;32.02;43.90
46690;BME280;32423;45.398;10.874;2023-08-20T10:30:17;101134.66;;;32.07;44.60
46690;BME280;32423;45.398;10.874;2023-08-20T10:33:02;101135.56;;;32.16;43.94
46690;BME280;32423;45.398;10.874;2023-08-20T10:35:47;101138.00;;;32.27;43.95
46690;BME280;32423;45.398;10.874;2023-08-20T10:38:35;101133.84;;;32.32;44.51
46690;BME280;32423;45.398;10.874;2023-08-20T10:41:23;101138.00;;;32.27;44.93
46690;BME280;32423;45.398;10.874;2023-08-20T10:44:08;101135.34;;;32.23;44.63
46690;BME280;32423;45.398;10.874;2023-08-20T10:46:53;101130.34;;;32.28;44.76
46690;BME280;32423;45.398;10.874;2023-08-20T10:49:37;101125.31;;;32.22;44.60
46690;BME280;32423;45.398;10.874;2023-08-20T10:52:22;101130.34;;;32.28;44.47
46690;BME280;32423;45.398;10.874;2023-08-20T10:55:07;101129.78;;;32.33;44.57
46690;BME280;32423;45.398;10.874;2023-08-20T10:57:55;101114.47;;;32.34;44.34
46690;BME280;32423;45.398;10.874;2023-08-20T11:00:41;101113.53;;;32.37;44.43
46690;BME280;32423;45.398;10.874;2023-08-20T11:03:26;101116.47;;;32.46;44.20
46690;BME280;32423;45.398;10.874;2023-08-20T11:06:11;101103.25;;;32.55;43.63
46690;BME280;32423;45.398;10.874;2023-08-20T11:08:55;101105.38;;;32.64;43.75
46690;BME280;32423;45.398;10.874;2023-08-20T11:11:40;101100.72;;;32.57;44.05
46690;BME280;32423;45.398;10.874;2023-08-20T11:14:24;101099.16;;;32.56;44.28
46690;BME280;32423;45.398;10.874;2023-08-20T11:17:08;101098.88;;;32.76;42.32
46690;BME280;32423;45.398;10.874;2023-08-20T11:19:53;101092.91;;;32.74;43.14
46690;BME280;32423;45.398;10.874;2023-08-20T11:22:38;101087.47;;;32.80;43.30
46690;BME280;32423;45.398;10.874;2023-08-20T11:25:22;101089.56;;;32.88;42.46
46690;BME280;32423;45.398;10.874;2023-08-20T11:28:07;101091.63;;;32.97;42.41
46690;BME280;32423;45.398;10.874;2023-08-20T11:30:51;101087.47;;;33.01;42.35
46690;BME280;32423;45.398;10.874;2023-08-20T11:33:37;101082.94;;;33.04;42.50
46690;BME280;32423;45.398;10.874;2023-08-20T11:36:22;101087.78;;;33.03;42.42
46690;BME280;32423;45.398;10.874;2023-08-20T11:39:07;101085.84;;;33.22;40.71
46690;BME280;32423;45.398;10.874;2023-08-20T11:41:52;101088.59;;;33.35;41.20
46690;BME280;32423;45.398;10.874;2023-08-20T11:44:46;101079.00;;;33.32;41.55
46690;BME280;32423;45.398;10.874;2023-08-20T11:47:38;101078.88;;;33.36;41.17
46690;BME280;32423;45.398;10.874;2023-08-20T11:50:22;101080.91;;;33.35;41.82
46690;BME280;32423;45.398;10.874;2023-08-20T11:53:07;101080.38;;;33.59;39.42
46690;BME280;32423;45.398;10.874;2023-08-20T11:55:52;101078.94;;;34.03;38.42
46690;BME280;32423;45.398;10.874;2023-08-20T11:58:36;101074.06;;;34.04;38.74
46690;BME280;32423;45.398;10.874;2023-08-20T12:01:21;101073.75;;;34.02;38.52
46690;BME280;32423;45.398;10.874;2023-08-20T12:04:06;101075.00;;;34.01;39.50
46690;BME280;32423;45.398;10.874;2023-08-20T12:07:01;101077.03;;;33.91;39.86
46690;BME280;32423;45.398;10.874;2023-08-20T12:09:47;101073.25;;;33.85;40.31
46690;BME280;32423;45.398;10.874;2023-08-20T12:12:33;101079.34;;;33.74;40.87
46690;BME280;32423;45.398;10.874;2023-08-20T12:15:18;101077.47;;;33.71;40.91
46690;BME280;32423;45.398;10.874;2023-08-20T12:18:04;101070.25;;;33.79;40.25
46690;BME280;32423;45.398;10.874;2023-08-20T12:20:48;101064.00;;;33.93;38.77
46690;BME280;32423;45.398;10.874;2023-08-20T12:23:33;101067.94;;;33.96;39.27
46690;BME280;32423;45.398;10.874;2023-08-20T12:26:17;101064.22;;;34.08;38.31
46690;BME280;32423;45.398;10.874;2023-08-20T12:29:02;101065.47;;;34.16;38.90
46690;BME280;32423;45.398;10.874;2023-08-20T12:31:47;101067.38;;;34.19;38.71
46690;BME280;32423;45.398;10.874;2023-08-20T12:34:31;101065.94;;;34.15;39.32
46690;BME280;32423;45.398;10.874;2023-08-20T12:37:16;101059.34;;;34.18;39.36
46690;BME280;32423;45.398;10.874;2023-08-20T12:40:00;101063.63;;;34.22;38.74
46690;BME280;32423;45.398;10.874;2023-08-20T12:42:45;101063.94;;;34.33;38.90
46690;BME280;32423;45.398;10.874;2023-08-20T12:45:29;101059.22;;;34.49;37.33
46690;BME280;32423;45.398;10.874;2023-08-20T12:48:14;101059.50;;;34.51;38.38
46690;BME280;32423;45.398;10.874;2023-08-20T12:50:58;101056.53;;;34.45;38.61
46690;BME280;32423;45.398;10.874;2023-08-20T12:53:43;101053.84;;;34.60;37.74
46690;BME280;32423;45.398;10.874;2023-08-20T12:56:27;101044.63;;;34.68;37.43
46690;BME280;32423;45.398;10.874;2023-08-20T12:59:12;101035.66;;;34.79;37.40
46690;BME280;32423;45.398;10.874;2023-08-20T13:01:56;101038.22;;;35.01;37.30
46690;BME280;32423;45.398;10.874;2023-08-20T13:04:42;101037.63;;;34.97;37.26
46690;BME280;32423;45.398;10.874;2023-08-20T13:07:27;101032.25;;;35.08;36.97
46690;BME280;32423;45.398;10.874;2023-08-20T13:10:11;101035.41;;;35.10;36.14
46690;BME280;32423;45.398;10.874;2023-08-20T13:12:59;101033.44;;;35.34;36.22
46690;BME280;32423;45.398;10.874;2023-08-20T13:15:44;101029.03;;;35.33;35.47
46690;BME280;32423;45.398;10.874;2023-08-20T13:18:30;101028.97;;;35.42;35.29
46690;BME280;32423;45.398;10.874;2023-08-20T13:21:14;101022.31;;;35.54;35.03
46690;BME280;32423;45.398;10.874;2023-08-20T13:23:59;101014.53;;;35.40;35.96
46690;BME280;32423;45.398;10.874;2023-08-20T13:26:43;101010.78;;;35.34;36.33
46690;BME280;32423;45.398;10.874;2023-08-20T13:29:28;101015.47;;;35.37;35.82
46690;BME280;32423;45.398;10.874;2023-08-20T13:32:13;101017.72;;;35.33;36.16
46690;BME280;32423;45.398;10.874;2023-08-20T13:34:57;101010.84;;;35.16;36.40
46690;BME280;32423;45.398;10.874;2023-08-20T13:37:41;101015.72;;;35.25;35.58
46690;BME280;32423;45.398;10.874;2023-08-20T13:40:26;101012.78;;;35.43;35.00
46690;BME280;32423;45.398;10.874;2023-08-20T13:43:11;101008.63;;;35.53;34.83
46690;BME280;32423;45.398;10.874;2023-08-20T13:45:55;101003.69;;;35.39;35.55
46690;BME280;32423;45.398;10.874;2023-08-20T13:48:40;100998.94;;;35.12;36.83
46690;BME280;32423;45.398;10.874;2023-08-20T13:51:24;101009.28;;;35.24;35.83
46690;BME280;32423;45.398;10.874;2023-08-20T13:54:09;101006.66;;;35.44;34.82
46690;BME280;32423;45.398;10.874;2023-08-20T13:56:54;101006.94;;;35.46;35.31
46690;BME280;32423;45.398;10.874;2023-08-20T13:59:38;101008.63;;;35.29;35.92
46690;BME280;32423;45.398;10.874;2023-08-20T14:02:23;101008.25;;;35.36;35.03
46690;BME280;32423;45.398;10.874;2023-08-20T14:05:07;101004.09;;;35.46;35.24
46690;BME280;32423;45.398;10.874;2023-08-20T14:07:52;101004.06;;;35.55;34.71
46690;BME280;32423;45.398;10.874;2023-08-20T14:10:37;100999.00;;;35.59;34.48
46690;BME280;32423;45.398;10.874;2023-08-20T14:13:21;101001.97;;;35.65;34.52
46690;BME280;32423;45.398;10.874;2023-08-20T14:16:05;101006.00;;;35.49;35.52
46690;BME280;32423;45.398;10.874;2023-08-20T14:18:50;100995.84;;;35.67;34.45
46690;BME280;32423;45.398;10.874;2023-08-20T14:21:35;100996.84;;;35.54;35.15